Pagrindinis puslapis
METAR-TAF:

METAR-TAF

Oro uostai :

Notodden, Norvegija

platuma: 59-34N, ilguma: 009-13E, Aukštis: 19 m

Dabartinis oras

Ataskaita buvo paskelbta 7 valandos ir 35 minutes, ne 14:20 UTC
Vėjas 8 kt iš Rytų/Pietryčių
Temperatūra 17°C
Drėgmė 68%
Slėgis 1007 hPa
Matomumas 10 km arba daugiau
Mažai debesys ne aukštis 3200 ft
Išsisklaidę debesys ne aukštis 4600 ft
Su prošvaistėmis ne aukštis 6300 ft
Liūtis kaimynystėje,

METAR: ENNO 161420Z 12008KT 9999 VCSH FEW032 SCT046 BKN063 17/11 Q1007

Laikas: 23:55 (21:55 UTC)


TAF: trūkstamas

Orai ataskaitas ir orų prognozės (METAR, TAF).

turimą stotys yra geltonos ir raudonos taškus žemėlapyje.

Perkelti pele per norėdami pamatyti stoties vardą.

Tada spustelėkite, norėdami matyti oro stebėjimo ir prognozės.

Norėdami pakeisti žemėlapį: spustelėkite ant žalios mygtukų su juodo kryžiaus žemyn,; žalią mygtuką su brūkšneliu, jei norite nutolinti; arba žalių rodyklių gretimoms žemėlapius.


METAR-TAF: